Time;durP1;ratioP1;P1;durP2;ratioP2;P2;SDS_P1;SDS_P2;PMS_P1;PMS_P2;Temp;Humidity;BMP_temperature;BMP_pressure;BME280_temperature;BME280_humidity;BME280_pressure;Samples;Min_cycle;Max_cycle;Signal;HPM_P1;HPM_P2
2022/12/19 00:00:04;;;;;;;25.80;15.10;;;;;;;3.01;65.21;101579.47;680569;29;1183;-88
2022/12/19 00:00:33;;;;;;;27.10;15.60;;;;;;;2.97;64.74;101570.63;683268;29;1117;-87
2022/12/19 00:01:25;;;;;;;27.05;15.30;;;;;;;3.04;64.84;101573.59;683250;28;1333;-87
2022/12/19 00:01:46;;;;;;;24.75;15.13;;;;;;;3.00;64.99;101573.41;677826;29;1414;-87
2022/12/19 00:02:07;;;;;;;23.80;14.93;;;;;;;2.96;65.03;101571.41;679541;29;1058;-87
2022/12/19 00:02:27;;;;;;;25.00;14.87;;;;;;;3.01;64.87;101572.63;680502;28;1137;-86
2022/12/19 00:02:48;;;;;;;25.20;15.00;;;;;;;2.93;64.86;101563.44;677945;29;839;-88
2022/12/19 00:03:09;;;;;;;26.30;15.00;;;;;;;2.99;65.28;101570.69;683098;29;1081;-87
2022/12/19 00:03:30;;;;;;;26.70;15.18;;;;;;;2.92;65.08;101560.72;683150;29;1379;-87
2022/12/19 00:03:59;;;;;;;26.30;15.07;;;;;;;2.98;65.31;101568.91;678003;29;1172;-87
2022/12/19 00:04:20;;;;;;;24.77;14.68;;;;;;;3.03;65.56;101574.41;680467;29;1190;-87
2022/12/19 00:04:40;;;;;;;25.00;14.52;;;;;;;2.99;64.98;101563.88;685753;28;1248;-85
2022/12/19 00:05:01;;;;;;;24.45;14.50;;;;;;;2.99;65.33;101556.16;685786;28;1292;-87
2022/12/19 00:05:21;;;;;;;26.47;14.53;;;;;;;3.00;65.17;101568.25;680467;28;1165;-87
2022/12/19 00:05:42;;;;;;;25.35;14.40;;;;;;;3.00;65.11;101563.09;683267;29;1103;-87
2022/12/19 00:06:03;;;;;;;25.02;14.77;;;;;;;2.99;65.04;101560.38;683076;28;1067;-87
2022/12/19 00:06:25;;;;;;;26.05;15.10;;;;;;;2.94;65.64;101554.91;683132;29;1102;-87
2022/12/19 00:06:46;;;;;;;27.10;15.05;;;;;;;3.02;65.45;101563.22;677904;29;1964;-87
2022/12/19 00:07:06;;;;;;;28.20;15.10;;;;;;;3.06;65.33;101569.47;680118;29;1305;-87
2022/12/19 00:07:27;;;;;;;28.10;15.67;;;;;;;3.03;65.31;101556.34;680601;29;1117;-87
2022/12/19 00:07:48;;;;;;;28.43;16.10;;;;;;;3.00;65.23;101552.78;680418;28;1318;-87
2022/12/19 00:08:15;;;;;;;27.02;15.45;;;;;;;3.01;65.51;101558.84;680314;29;1100;-87
2022/12/19 00:08:47;;;;;;;26.63;15.10;;;;;;;3.07;65.16;101564.41;685801;28;1051;-87
2022/12/19 00:09:08;;;;;;;28.48;15.45;;;;;;;3.07;65.44;101563.53;680314;29;953;-87
2022/12/19 00:09:29;;;;;;;28.05;15.40;;;;;;;3.04;65.10;101558.13;683009;29;1062;-87
2022/12/19 00:09:49;;;;;;;30.60;15.40;;;;;;;2.99;65.38;101551.00;683075;29;1055;-87
2022/12/19 00:10:10;;;;;;;28.92;15.13;;;;;;;2.97;65.33;101539.69;680231;29;1322;-87
2022/12/19 00:10:30;;;;;;;27.55;14.60;;;;;;;3.00;65.28;101554.47;680311;29;1226;-87
2022/12/19 00:10:56;;;;;;;24.73;14.38;;;;;;;3.03;65.68;101546.94;680438;29;1320;-88
2022/12/19 00:11:19;;;;;;;25.73;15.18;;;;;;;3.07;65.67;101553.22;680335;29;1254;-87
2022/12/19 00:11:40;;;;;;;25.40;15.05;;;;;;;3.01;65.52;101554.56;683103;28;1282;-87
2022/12/19 00:12:00;;;;;;;25.05;14.98;;;;;;;3.02;65.80;101540.00;680480;29;1168;-87
2022/12/19 00:12:24;;;;;;;23.88;14.75;;;;;;;3.01;65.43;101549.41;682981;29;1194;-87
2022/12/19 00:12:44;;;;;;;24.98;14.63;;;;;;;3.05;65.70;101549.66;680480;29;1197;-88
2022/12/19 00:13:05;;;;;;;27.23;15.18;;;;;;;3.04;65.75;101545.25;680522;29;1076;-87
2022/12/19 00:13:27;;;;;;;28.60;15.50;;;;;;;3.05;65.72;101552.22;680344;29;1026;-87
2022/12/19 00:13:48;;;;;;;27.80;15.27;;;;;;;3.07;65.79;101548.06;677847;29;1193;-87
2022/12/19 00:14:10;;;;;;;26.42;14.75;;;;;;;2.97;65.45;101531.94;677741;29;1279;-87
2022/12/19 00:14:31;;;;;;;25.27;14.38;;;;;;;3.02;65.59;101542.56;677809;29;1135;-86
2022/12/19 00:14:51;;;;;;;25.83;14.93;;;;;;;2.97;65.29;101539.69;678007;29;1371;-88
2022/12/19 00:15:12;;;;;;;28.67;15.70;;;;;;;3.05;65.78;101544.47;677794;29;1261;-87
2022/12/19 00:15:34;;;;;;;28.23;15.27;;;;;;;3.05;65.58;101544.47;683183;29;986;-87
2022/12/19 00:15:58;;;;;;;28.60;15.48;;;;;;;3.00;65.66;101536.44;683070;29;1114;-87
2022/12/19 00:16:25;;;;;;;25.60;15.30;;;;;;;2.98;65.45;101531.16;682995;29;1147;-87
2022/12/19 00:16:45;;;;;;;26.70;15.73;;;;;;;2.98;65.43;101532.81;680419;29;1314;-87
2022/12/19 00:17:06;;;;;;;26.50;15.43;;;;;;;2.98;65.49;101533.72;677631;29;1359;-87
2022/12/19 00:17:26;;;;;;;25.45;15.30;;;;;;;2.99;65.51;101532.03;680546;29;1478;-88
2022/12/19 00:17:47;;;;;;;24.23;14.50;;;;;;;2.98;65.75;101528.56;677927;29;1168;-87
2022/12/19 00:18:08;;;;;;;24.58;15.15;;;;;;;2.99;65.76;101532.94;683142;29;1324;-87
2022/12/19 00:18:28;;;;;;;27.45;15.20;;;;;;;3.00;65.67;101532.16;683233;28;989;-87
2022/12/19 00:18:50;;;;;;;29.57;16.00;;;;;;;3.03;65.91;101538.28;683268;29;1150;-87
2022/12/19 00:19:11;;;;;;;29.25;15.48;;;;;;;3.04;65.95;101540.09;683064;29;992;-87
2022/12/19 00:19:32;;;;;;;27.67;15.75;;;;;;;2.99;66.16;101527.78;685792;28;1171;-88
2022/12/19 00:19:53;;;;;;;27.20;15.43;;;;;;;2.99;65.88;101524.28;683226;28;1275;-87
2022/12/19 00:20:14;;;;;;;26.50;15.00;;;;;;;3.06;65.79;101543.69;683081;29;1121;-88
2022/12/19 00:20:34;;;;;;;26.92;15.13;;;;;;;3.00;66.20;101531.25;683215;29;1203;-88
2022/12/19 00:21:03;;;;;;;28.70;15.82;;;;;;;3.00;65.70;101519.25;683157;29;1117;-88
2022/12/19 00:21:30;;;;;;;28.15;15.60;;;;;;;3.04;65.94;101534.94;680536;29;1243;-86
2022/12/19 00:21:50;;;;;;;26.75;15.45;;;;;;;3.00;65.74;101521.81;683158;29;889;-87
2022/12/19 00:22:11;;;;;;;27.80;15.93;;;;;;;3.07;65.71;101537.75;680442;28;1259;-86
2022/12/19 00:22:32;;;;;;;28.73;16.37;;;;;;;3.05;65.76;101539.31;677829;29;991;-87
2022/12/19 00:22:52;;;;;;;30.13;16.23;;;;;;;3.02;65.85;101521.94;677890;29;1221;-87
2022/12/19 00:23:13;;;;;;;28.70;16.20;;;;;;;3.07;65.96;101532.59;680408;29;1084;-86
2022/12/19 00:23:34;;;;;;;29.65;16.08;;;;;;;3.01;65.87;101528.78;680378;29;1005;-86
2022/12/19 00:23:56;;;;;;;27.83;15.52;;;;;;;3.01;65.92;101531.34;683215;29;1110;-86
2022/12/19 00:24:16;;;;;;;26.63;14.73;;;;;;;3.01;65.87;101528.78;677745;29;1337;-87
2022/12/19 00:24:37;;;;;;;25.50;14.80;;;;;;;3.03;65.95;101535.72;677784;29;1220;-87
2022/12/19 00:24:57;;;;;;;26.13;15.20;;;;;;;3.01;66.17;101527.91;680461;29;1079;-87
2022/12/19 00:25:21;;;;;;;25.83;15.60;;;;;;;3.03;65.98;101536.63;682962;28;1502;-87
2022/12/19 00:25:44;;;;;;;26.67;15.63;;;;;;;3.00;65.96;101526.97;677678;28;1513;-86
2022/12/19 00:26:14;;;;;;;27.30;15.65;;;;;;;3.03;65.98;101530.56;682994;28;1287;-86
2022/12/19 00:26:35;;;;;;;28.98;15.00;;;;;;;3.03;65.91;101525.41;680232;29;1903;-87
2022/12/19 00:26:56;;;;;;;27.60;14.50;;;;;;;3.03;66.17;101526.31;680475;29;1287;-86
2022/12/19 00:27:16;;;;;;;27.70;14.80;;;;;;;3.04;66.00;101527.19;683196;28;954;-86
2022/12/19 00:27:37;;;;;;;25.50;14.65;;;;;;;3.03;66.24;101522.81;680359;29;1260;-86
2022/12/19 00:27:58;;;;;;;25.20;14.80;;;;;;;3.01;66.15;101523.63;680327;29;1059;-86
2022/12/19 00:28:19;;;;;;;27.88;15.02;;;;;;;3.03;66.03;101526.31;675190;29;1099;-87
2022/12/19 00:28:45;;;;;;;29.55;15.43;;;;;;;3.06;66.14;101535.97;677649;29;1436;-86
2022/12/19 00:29:08;;;;;;;27.40;15.10;;;;;;;3.07;66.00;101535.16;683103;28;955;-86
2022/12/19 00:29:29;;;;;;;25.92;15.10;;;;;;;2.98;66.47;101517.34;680445;29;1380;-87
2022/12/19 00:29:50;;;;;;;24.88;15.50;;;;;;;2.98;66.13;101518.25;685669;28;1202;-87
2022/12/19 00:30:11;;;;;;;26.38;15.75;;;;;;;2.99;66.02;101514.88;682870;29;1194;-87
2022/12/19 00:30:31;;;;;;;26.52;15.40;;;;;;;3.03;66.20;101525.41;683081;28;1477;-86
2022/12/19 00:30:52;;;;;;;27.58;15.55;;;;;;;2.99;66.54;101522.63;683188;29;1192;-86
2022/12/19 00:31:15;;;;;;;27.63;15.07;;;;;;;2.92;66.24;101507.50;680308;28;1373;-86
2022/12/19 00:31:36;;;;;;;25.20;14.82;;;;;;;2.96;66.15;101517.25;677678;28;1306;-86
2022/12/19 00:31:57;;;;;;;25.40;14.80;;;;;;;3.01;66.41;101520.16;680455;29;1244;-87
2022/12/19 00:32:17;;;;;;;25.42;15.10;;;;;;;3.00;66.07;101515.78;680327;29;1306;-87
2022/12/19 00:32:38;;;;;;;26.97;15.57;;;;;;;2.99;66.37;101522.63;680253;29;1171;-87
2022/12/19 00:32:59;;;;;;;27.83;15.50;;;;;;;2.95;66.30;101512.84;677751;29;1193;-86
2022/12/19 00:33:19;;;;;;;28.77;15.85;;;;;;;2.97;66.56;101510.41;677439;29;1219;-86
2022/12/19 00:33:41;;;;;;;27.70;15.87;;;;;;;2.99;66.40;101525.19;677387;29;1187;-86
2022/12/19 00:34:02;;;;;;;27.73;15.98;;;;;;;2.93;66.55;101509.28;680252;29;1101;-86
2022/12/19 00:34:22;;;;;;;28.13;15.80;;;;;;;2.91;66.39;101508.28;685920;28;861;-87
2022/12/19 00:34:43;;;;;;;28.50;15.70;;;;;;;2.90;66.82;101503.91;683013;29;1318;-87
2022/12/19 00:35:04;;;;;;;27.83;16.20;;;;;;;2.94;66.62;101518.81;682883;29;1140;-86
2022/12/19 00:35:27;;;;;;;26.30;15.95;;;;;;;2.93;66.47;101514.44;680499;28;1407;-86
2022/12/19 00:35:48;;;;;;;28.13;16.63;;;;;;;2.92;66.54;101511.75;683094;29;803;-86
2022/12/19 00:36:15;;;;;;;28.40;16.40;;;;;;;2.98;66.90;101526.00;685518;28;1276;-86
2022/12/19 00:36:36;;;;;;;30.05;16.67;;;;;;;2.94;66.45;101511.06;680262;29;965;-86
2022/12/19 00:36:56;;;;;;;28.33;16.10;;;;;;;2.98;66.99;101518.25;682950;28;1237;-86
2022/12/19 00:37:17;;;;;;;27.27;15.77;;;;;;;2.91;67.06;101505.72;682925;28;1200;-87
2022/12/19 00:37:37;;;;;;;25.88;15.25;;;;;;;2.93;66.78;101513.56;680440;29;1214;-86
2022/12/19 00:37:58;;;;;;;25.23;15.00;;;;;;;2.92;67.08;101522.06;680319;29;1257;-86
2022/12/19 00:38:19;;;;;;;24.43;14.93;;;;;;;2.91;67.22;101509.97;683005;28;993;-86
2022/12/19 00:38:42;;;;;;;25.45;15.43;;;;;;;2.96;66.83;101519.84;685590;28;1162;-86
2022/12/19 00:39:04;;;;;;;25.15;15.13;;;;;;;2.96;66.88;101522.41;680291;29;1256;-86
2022/12/19 00:39:25;;;;;;;27.08;15.55;;;;;;;2.92;66.95;101510.06;677697;29;1003;-86
2022/12/19 00:39:46;;;;;;;27.30;15.70;;;;;;;2.92;67.30;101512.66;682939;28;1306;-86
2022/12/19 00:40:08;;;;;;;28.86;16.24;;;;;;;2.98;66.89;101523.41;682859;29;1235;-86
2022/12/19 00:40:31;;;;;;;29.05;15.70;;;;;;;2.98;67.18;101522.50;682937;29;1077;-86
2022/12/19 00:40:53;;;;;;;28.55;16.02;;;;;;;2.94;67.17;101516.22;680327;28;1256;-86
2022/12/19 00:41:18;;;;;;;27.75;16.00;;;;;;;3.01;67.31;101526.19;682895;28;1450;-86
2022/12/19 00:41:39;;;;;;;28.52;16.45;;;;;;;2.93;67.29;101511.88;685505;28;1351;-86
2022/12/19 00:42:00;;;;;;;29.08;16.10;;;;;;;2.97;67.30;101515.56;680366;28;1261;-86
2022/12/19 00:42:20;;;;;;;27.00;15.60;;;;;;;2.95;67.24;101512.84;682717;28;1198;-86
2022/12/19 00:42:42;;;;;;;28.02;15.73;;;;;;;2.97;66.86;101510.41;682748;28;1517;-86
2022/12/19 00:43:03;;;;;;;27.07;16.00;;;;;;;2.96;67.08;101504.38;682938;29;1115;-86
2022/12/19 00:43:23;;;;;;;28.37;16.47;;;;;;;2.99;67.13;101509.72;680390;29;1229;-87
2022/12/19 00:43:44;;;;;;;28.60;16.10;;;;;;;2.97;66.96;101508.72;683004;29;796;-86
2022/12/19 00:44:09;;;;;;;29.58;15.35;;;;;;;2.94;67.31;101502.47;679810;29;1371;-86
2022/12/19 00:44:29;;;;;;;30.40;15.52;;;;;;;2.99;66.99;101509.72;685614;28;1180;-86
2022/12/19 00:44:50;;;;;;;29.10;15.33;;;;;;;2.99;67.07;101511.41;685702;28;1105;-87
2022/12/19 00:45:11;;;;;;;28.38;15.25;;;;;;;2.92;67.18;101492.03;680451;29;1017;-86
2022/12/19 00:45:31;;;;;;;27.65;14.90;;;;;;;3.00;67.56;101506.34;682887;28;1234;-86
2022/12/19 00:45:52;;;;;;;28.97;15.67;;;;;;;3.01;67.17;101508.13;683195;28;1134;-87
2022/12/19 00:46:14;;;;;;;29.30;16.38;;;;;;;2.98;67.57;101491.56;685588;28;1031;-86
2022/12/19 00:46:35;;;;;;;30.02;16.38;;;;;;;2.96;67.17;101487.97;677586;29;1950;-86
2022/12/19 00:46:56;;;;;;;30.42;16.35;;;;;;;2.93;67.14;101488.66;682861;28;1260;-85
2022/12/19 00:47:16;;;;;;;29.83;16.00;;;;;;;2.97;67.48;101490.69;680323;28;1248;-86
2022/12/19 00:47:38;;;;;;;28.98;16.05;;;;;;;2.96;67.29;101494.06;677894;29;717;-86
2022/12/19 00:47:58;;;;;;;28.35;16.00;;;;;;;2.96;67.27;101488.88;675069;29;1245;-86
2022/12/19 00:48:19;;;;;;;31.17;16.30;;;;;;;3.01;67.35;101494.38;675072;29;1363;-86
2022/12/19 00:48:41;;;;;;;32.33;16.30;;;;;;;3.00;67.42;101496.03;680273;29;1073;-86
2022/12/19 00:49:03;;;;;;;31.83;16.00;;;;;;;2.99;67.31;101489.09;682896;29;1300;-85
2022/12/19 00:49:24;;;;;;;28.92;15.77;;;;;;;2.99;67.58;101493.34;682918;28;1112;-86
2022/12/19 00:49:45;;;;;;;28.20;15.40;;;;;;;2.99;67.64;101494.25;677721;29;1190;-86
2022/12/19 00:50:08;;;;;;;27.67;15.37;;;;;;;2.95;67.64;101479.34;682895;29;1001;-86
2022/12/19 00:50:31;;;;;;;27.65;15.13;;;;;;;3.00;67.57;101485.72;685574;28;1298;-86
2022/12/19 00:51:01;;;;;;;31.40;15.90;;;;;;;3.03;67.54;101494.44;677707;29;1181;-86
2022/12/19 00:51:26;;;;;;;32.55;16.25;;;;;;;3.04;67.46;101496.25;682833;28;1069;-86
2022/12/19 00:51:47;;;;;;;31.77;15.65;;;;;;;3.01;67.51;101490.09;680385;29;935;-86
2022/12/19 00:52:07;;;;;;;31.17;15.60;;;;;;;3.04;67.41;101493.66;685542;28;1166;-86
2022/12/19 00:52:28;;;;;;;30.17;15.67;;;;;;;3.00;67.82;101488.31;680289;29;1122;-87
2022/12/19 00:52:51;;;;;;;28.17;15.13;;;;;;;3.01;67.70;101495.25;680580;29;1125;-86
2022/12/19 00:53:11;;;;;;;28.88;15.18;;;;;;;3.05;67.57;101492.91;685439;28;1160;-86
2022/12/19 00:53:33;;;;;;;27.27;14.80;;;;;;;3.02;67.55;101488.41;682885;28;1156;-86
2022/12/19 00:53:55;;;;;;;25.85;15.02;;;;;;;3.06;67.79;101495.56;682948;28;1284;-86
2022/12/19 00:54:16;;;;;;;27.55;14.93;;;;;;;3.00;67.81;101485.72;680172;28;1170;-85
2022/12/19 00:54:36;;;;;;;29.37;15.20;;;;;;;2.99;67.88;101489.09;682727;29;1103;-86
2022/12/19 00:54:57;;;;;;;30.75;15.80;;;;;;;3.01;67.75;101484.94;677598;29;1090;-86
2022/12/19 00:55:17;;;;;;;28.90;15.97;;;;;;;3.05;67.55;101492.91;680275;29;1243;-86
2022/12/19 00:55:38;;;;;;;30.17;16.13;;;;;;;3.04;67.54;101488.50;677658;29;1125;-86
2022/12/19 00:56:09;;;;;;;30.25;16.30;;;;;;;3.03;67.66;101495.38;682932;29;1192;-86
2022/12/19 00:56:32;;;;;;;27.98;15.40;;;;;;;3.05;67.73;101490.31;680051;28;982;-86
2022/12/19 00:56:52;;;;;;;26.42;14.80;;;;;;;3.00;67.93;101488.31;685452;28;1468;-86
2022/12/19 00:57:14;;;;;;;27.05;14.77;;;;;;;3.04;67.93;101491.09;685388;28;1394;-86
2022/12/19 00:57:34;;;;;;;28.85;15.20;;;;;;;3.00;67.54;101484.84;680251;29;1264;-86
2022/12/19 00:57:55;;;;;;;29.50;15.95;;;;;;;2.99;67.62;101480.44;682967;29;1067;-86
2022/12/19 00:58:16;;;;;;;30.02;16.45;;;;;;;3.06;67.81;101489.53;682827;29;1378;-86
2022/12/19 00:58:36;;;;;;;29.90;16.50;;;;;;;3.08;67.61;101491.44;682906;29;1040;-86
2022/12/19 00:58:57;;;;;;;30.90;15.70;;;;;;;3.03;67.68;101489.28;677759;29;1151;-86
2022/12/19 00:59:18;;;;;;;35.60;15.98;;;;;;;3.01;67.67;101492.66;680101;29;1150;-86
2022/12/19 00:59:39;;;;;;;35.35;15.73;;;;;;;3.06;68.11;101489.53;682980;29;1085;-86
2022/12/19 01:00:00;;;;;;;33.40;15.80;;;;;;;3.01;67.97;101490.09;685602;28;1279;-86
2022/12/19 01:00:20;;;;;;;27.42;15.20;;;;;;;3.03;68.06;101489.28;680315;28;1302;-86
2022/12/19 01:00:41;;;;;;;25.75;14.65;;;;;;;3.00;68.02;101483.16;677571;28;1332;-86
2022/12/19 01:01:07;;;;;;;27.30;14.70;;;;;;;3.09;67.75;101489.75;682855;28;1204;-86
2022/12/19 01:01:34;;;;;;;26.67;14.95;;;;;;;3.13;67.74;101502.06;677472;29;1620;-86
2022/12/19 01:01:55;;;;;;;26.80;15.90;;;;;;;3.05;67.88;101482.59;682937;28;1238;-86
2022/12/19 01:02:16;;;;;;;28.33;16.13;;;;;;;3.09;67.93;101492.31;680195;29;1334;-86
2022/12/19 01:02:36;;;;;;;27.80;15.60;;;;;;;3.09;67.87;101493.22;680202;29;1236;-87
2022/12/19 01:02:57;;;;;;;27.67;14.83;;;;;;;3.09;67.78;101487.16;677630;29;1294;-87
2022/12/19 01:03:18;;;;;;;28.88;15.25;;;;;;;3.10;67.72;101494.09;680375;29;950;-86
2022/12/19 01:03:38;;;;;;;28.88;15.60;;;;;;;3.07;67.73;101478.44;680415;29;1032;-87
2022/12/19 01:04:01;;;;;;;28.77;16.20;;;;;;;3.14;67.86;101490.97;680279;28;1133;-86
2022/12/19 01:04:21;;;;;;;27.30;15.88;;;;;;;3.11;67.96;101483.00;683022;29;1058;-86
2022/12/19 01:04:42;;;;;;;27.38;15.43;;;;;;;3.10;68.00;101482.13;682863;28;1170;-86
2022/12/19 01:05:06;;;;;;;27.45;15.00;;;;;;;3.12;67.89;101489.97;680101;29;1225;-86
2022/12/19 01:05:27;;;;;;;26.38;14.98;;;;;;;3.12;67.79;101484.81;680275;29;1306;-86
2022/12/19 01:05:49;;;;;;;27.20;15.67;;;;;;;3.10;68.01;101478.63;680216;29;1223;-86
2022/12/19 01:06:10;;;;;;;26.75;15.63;;;;;;;3.08;68.09;101482.78;677500;29;1267;-87
2022/12/19 01:06:31;;;;;;;27.10;15.70;;;;;;;3.12;68.00;101479.66;682723;28;1256;-86
2022/12/19 01:06:51;;;;;;;26.10;15.33;;;;;;;3.11;67.66;101477.84;680202;29;1982;-86
2022/12/19 01:07:12;;;;;;;28.33;15.90;;;;;;;3.17;67.86;101491.16;677722;29;1182;-86
2022/12/19 01:07:33;;;;;;;30.77;16.40;;;;;;;3.12;67.80;101487.38;675089;29;1286;-87
2022/12/19 01:07:54;;;;;;;33.88;16.98;;;;;;;3.14;67.64;101488.38;683014;28;1202;-86
2022/12/19 01:08:18;;;;;;;31.93;16.40;;;;;;;3.10;68.06;101482.13;682963;29;1170;-87
2022/12/19 01:08:38;;;;;;;28.25;15.45;;;;;;;3.10;68.09;101476.97;677542;29;1457;-86
2022/12/19 01:08:59;;;;;;;26.40;15.00;;;;;;;3.15;68.07;101479.84;675206;29;984;-87
2022/12/19 01:09:21;;;;;;;26.40;14.80;;;;;;;3.16;67.92;101481.66;682936;29;1115;-86
2022/12/19 01:09:43;;;;;;;28.92;15.45;;;;;;;3.18;67.72;101490.38;680182;29;1170;-86
2022/12/19 01:10:04;;;;;;;29.00;15.63;;;;;;;3.15;67.86;101483.31;680109;29;1150;-87
2022/12/19 01:10:24;;;;;;;29.70;16.20;;;;;;;3.12;67.84;101483.09;680481;29;885;-86
2022/12/19 01:10:47;;;;;;;29.63;15.80;;;;;;;3.14;68.13;101483.22;680166;29;1158;-87
2022/12/19 01:11:08;;;;;;;29.95;15.85;;;;;;;3.11;68.24;101485.56;680262;29;1056;-87
2022/12/19 01:12:49;;;;;;;29.08;15.88;;;;;;;3.18;68.10;101486.91;680257;29;993;-87
2022/12/19 01:13:11;;;;;;;29.90;15.93;;;;;;;3.18;68.24;101482.63;680145;29;1250;-87
2022/12/19 01:13:34;;;;;;;29.63;16.17;;;;;;;3.17;68.39;101482.56;677430;29;1348;-87
2022/12/19 01:13:55;;;;;;;28.77;15.70;;;;;;;3.16;68.04;101481.66;682973;28;1216;-87
2022/12/19 01:14:16;;;;;;;28.02;15.77;;;;;;;3.21;67.85;101488.03;680187;28;1159;-86
2022/12/19 01:14:41;;;;;;;27.13;15.43;;;;;;;3.17;68.03;101478.28;685536;28;1118;-87
2022/12/19 01:15:08;;;;;;;27.13;15.30;;;;;;;3.21;68.07;101490.59;679736;29;1197;-87
2022/12/19 01:15:29;;;;;;;27.45;15.32;;;;;;;3.19;68.26;101492.16;680120;28;1096;-87
2022/12/19 01:15:49;;;;;;;27.95;16.00;;;;;;;3.21;68.44;101489.69;682887;28;1298;-86
2022/12/19 01:16:12;;;;;;;27.58;16.13;;;;;;;3.20;68.14;101487.91;680218;29;1107;-87
2022/12/19 01:16:33;;;;;;;28.25;16.13;;;;;;;3.23;68.16;101493.28;677602;28;1352;-87
2022/12/19 01:16:54;;;;;;;31.43;15.90;;;;;;;3.16;68.14;101484.22;680157;29;1215;-87
2022/12/19 01:17:14;;;;;;;31.35;15.73;;;;;;;3.20;68.22;101493.97;680287;29;921;-87
2022/12/19 01:17:35;;;;;;;30.52;15.55;;;;;;;3.24;68.42;101503.72;680292;28;1271;-87
2022/12/19 01:17:55;;;;;;;26.13;15.57;;;;;;;3.15;68.37;101485.88;682852;29;1037;-87
2022/12/19 01:18:17;;;;;;;27.48;15.90;;;;;;;3.19;68.12;101497.31;682882;28;1362;-87
2022/12/19 01:18:41;;;;;;;28.48;15.82;;;;;;;3.19;68.31;101484.41;682854;28;1109;-88
2022/12/19 01:19:01;;;;;;;28.85;15.57;;;;;;;3.24;68.21;101495.09;677649;29;1132;-87
2022/12/19 01:19:29;;;;;;;27.97;15.40;;;;;;;3.17;67.96;101487.72;680345;29;1226;-87
2022/12/19 01:19:50;;;;;;;29.54;16.44;;;;;;;3.23;68.32;101496.75;683006;28;1268;-88
2022/12/19 01:20:21;;;;;;;29.00;16.70;;;;;;;3.17;67.90;101473.09;683014;29;1183;-87
2022/12/19 01:20:44;;;;;;;26.70;15.50;;;;;;;3.23;67.98;101491.59;680295;29;1076;-87
2022/12/19 01:21:07;;;;;;;26.88;15.25;;;;;;;3.24;68.18;101490.81;677629;29;1101;-87
2022/12/19 01:21:28;;;;;;;24.83;15.18;;;;;;;3.24;68.42;101485.66;680199;29;1199;-87
2022/12/19 01:21:48;;;;;;;25.77;15.85;;;;;;;3.21;68.19;101482.88;677685;29;1154;-87
2022/12/19 01:22:10;;;;;;;26.30;16.10;;;;;;;3.22;68.44;101471.75;685428;28;1348;-87
2022/12/19 01:22:31;;;;;;;29.20;16.48;;;;;;;3.26;68.49;101480.59;680325;29;1019;-87
2022/12/19 01:22:51;;;;;;;27.10;15.85;;;;;;;3.25;68.37;101482.28;682893;28;1309;-86
2022/12/19 01:23:14;;;;;;;29.87;16.33;;;;;;;3.23;68.16;101473.53;677556;29;1225;-87
2022/12/19 01:23:35;;;;;;;29.85;16.30;;;;;;;3.24;68.21;101480.50;680146;29;1213;-87
2022/12/19 01:23:56;;;;;;;31.05;16.60;;;;;;;3.21;68.28;101472.56;680216;29;1146;-87
2022/12/19 01:24:16;;;;;;;30.98;16.25;;;;;;;3.25;68.31;101487.44;676751;29;1203;-86
2022/12/19 01:24:37;;;;;;;28.75;15.95;;;;;;;3.31;68.29;101488.66;680167;29;1098;-86
2022/12/19 01:24:58;;;;;;;29.77;15.60;;;;;;;3.29;68.68;101475.66;677563;29;1100;-86
2022/12/19 01:25:18;;;;;;;29.17;15.90;;;;;;;3.35;68.39;101486.41;680231;29;1389;-87
2022/12/19 01:25:39;;;;;;;28.20;15.73;;;;;;;3.32;68.44;101482.72;677554;29;1351;-87
2022/12/19 01:25:59;;;;;;;28.42;16.05;;;;;;;3.30;68.41;101479.13;677542;29;1159;-86
2022/12/19 01:26:20;;;;;;;29.53;15.57;;;;;;;3.32;68.74;101477.53;680133;29;1128;-86
2022/12/19 01:26:41;;;;;;;32.45;16.02;;;;;;;3.33;68.28;101477.66;677371;29;1911;-87
2022/12/19 01:27:02;;;;;;;29.67;15.33;;;;;;;3.36;68.23;101487.31;674862;29;1182;-88
2022/12/19 01:27:22;;;;;;;29.63;15.60;;;;;;;3.34;68.01;101481.13;677762;29;813;-87
2022/12/19 01:27:43;;;;;;;27.80;15.45;;;;;;;3.41;68.41;101483.34;682839;29;1204;-86
2022/12/19 01:28:05;;;;;;;29.20;15.93;;;;;;;3.44;68.36;101490.41;680123;28;1161;-87
2022/12/19 01:28:26;;;;;;;27.33;16.10;;;;;;;3.35;68.25;101478.66;680132;28;1052;-86
2022/12/19 01:28:47;;;;;;;26.58;15.88;;;;;;;3.35;68.45;101468.34;682829;28;1269;-87
2022/12/19 01:29:08;;;;;;;28.05;15.60;;;;;;;3.39;68.49;101477.19;680118;28;1369;-86
2022/12/19 01:29:28;;;;;;;28.83;16.10;;;;;;;3.43;68.11;101479.16;680183;29;1225;-86
2022/12/19 01:29:49;;;;;;;29.30;15.55;;;;;;;3.45;68.27;101479.28;682944;29;1165;-86
2022/12/19 01:30:11;;;;;;;27.55;16.17;;;;;;;3.42;68.18;101478.28;677505;29;1184;-86
2022/12/19 01:30:33;;;;;;;28.15;15.57;;;;;;;3.47;68.28;101473.44;679977;29;1458;-86
2022/12/19 01:30:56;;;;;;;27.58;16.20;;;;;;;3.44;68.08;101478.41;680297;29;912;-86
2022/12/19 01:31:17;;;;;;;27.42;16.38;;;;;;;3.47;68.20;101477.69;685418;28;1258;-86
2022/12/19 01:31:37;;;;;;;25.75;15.75;;;;;;;3.49;68.40;101484.75;685623;28;1107;-86
2022/12/19 01:31:58;;;;;;;27.10;15.80;;;;;;;3.43;68.26;101476.59;682937;29;1116;-86
2022/12/19 01:32:20;;;;;;;26.80;15.32;;;;;;;3.39;68.11;101461.69;682908;29;1118;-88
2022/12/19 01:32:41;;;;;;;29.00;16.00;;;;;;;3.45;68.56;101479.28;677608;29;1169;-86
2022/12/19 01:33:01;;;;;;;29.33;15.93;;;;;;;3.39;68.07;101469.44;680167;29;1186;-86
2022/12/19 01:33:22;;;;;;;30.23;16.47;;;;;;;3.39;68.41;101470.31;680133;28;1157;-86
2022/12/19 01:33:43;;;;;;;30.75;16.70;;;;;;;3.37;68.52;101461.59;680205;29;1081;-86
2022/12/19 01:34:03;;;;;;;28.25;16.10;;;;;;;3.46;68.32;101471.66;680192;29;1091;-86
2022/12/19 01:34:24;;;;;;;28.90;16.03;;;;;;;3.44;68.26;101475.81;675040;29;1022;-86
2022/12/19 01:34:44;;;;;;;27.70;15.50;;;;;;;3.37;68.19;101460.72;680328;29;764;-87
2022/12/19 01:35:05;;;;;;;26.95;15.75;;;;;;;3.39;68.30;101453.97;677392;29;1215;-86
2022/12/19 01:35:27;;;;;;;27.60;16.00;;;;;;;3.40;68.90;101460.91;682865;29;1183;-86
2022/12/19 01:35:48;;;;;;;28.10;16.27;;;;;;;3.43;68.43;101468.84;680156;29;1147;-87
2022/12/19 01:36:08;;;;;;;30.50;16.42;;;;;;;3.47;68.26;101467.38;680086;29;1185;-86
2022/12/19 01:36:29;;;;;;;30.05;16.40;;;;;;;3.47;68.26;101462.22;677670;29;957;-86
2022/12/19 01:36:50;;;;;;;31.33;16.70;;;;;;;3.49;68.56;101466.69;674879;29;749;-86
2022/12/19 01:37:10;;;;;;;31.27;16.50;;;;;;;3.45;68.47;101454.38;674867;29;1232;-87
2022/12/19 01:37:31;;;;;;;30.67;16.17;;;;;;;3.51;68.41;101462.56;675032;29;990;-86
2022/12/19 01:37:53;;;;;;;30.13;15.80;;;;;;;3.46;68.30;101461.34;677688;29;809;-86
2022/12/19 01:38:18;;;;;;;27.05;15.52;;;;;;;3.49;68.34;101461.53;680167;29;1159;-85
2022/12/19 01:38:39;;;;;;;26.30;15.27;;;;;;;3.47;68.36;101457.03;677490;29;1280;-86
2022/12/19 01:38:59;;;;;;;26.90;15.10;;;;;;;3.46;68.21;101453.59;680170;29;1153;-86
2022/12/19 01:39:21;;;;;;;29.98;15.85;;;;;;;3.48;68.40;101453.72;680110;29;1098;-86
2022/12/19 01:39:41;;;;;;;30.52;16.10;;;;;;;3.54;68.61;101459.25;685478;28;1192;-86
2022/12/19 01:40:02;;;;;;;31.00;16.23;;;;;;;3.52;68.43;101459.19;685516;28;1157;-85
2022/12/19 01:40:23;;;;;;;28.98;15.70;;;;;;;3.47;68.27;101450.22;682754;29;1430;-86
2022/12/19 01:40:56;;;;;;;28.77;15.63;;;;;;;3.51;68.34;101454.81;682892;28;1303;-86
2022/12/19 01:41:16;;;;;;;30.13;15.70;;;;;;;3.50;68.52;101454.69;682896;29;911;-86
2022/12/19 01:41:37;;;;;;;28.98;15.23;;;;;;;3.53;68.44;101455.78;680026;28;1292;-86
2022/12/19 01:41:58;;;;;;;27.95;15.50;;;;;;;3.54;68.41;101449.84;677616;29;972;-86
2022/12/19 01:42:21;;;;;;;27.73;15.18;;;;;;;3.55;68.54;101451.63;677654;29;952;-85
2022/12/19 01:42:42;;;;;;;28.40;15.52;;;;;;;3.57;68.50;101451.75;680011;29;1077;-86
2022/12/19 01:43:03;;;;;;;30.02;15.60;;;;;;;3.56;68.08;101448.25;680195;29;1106;-86
2022/12/19 01:43:25;;;;;;;29.65;16.58;;;;;;;3.54;68.43;101442.09;680293;29;839;-86
2022/12/19 01:43:58;;;;;;;27.75;16.33;;;;;;;3.53;68.45;101455.78;682797;29;970;-87